Terminal Aerodrome Forecast
Issued by NWS Shreveport, LA

Home | Current Version | Previous Version | Text Only | Print | Product List | Glossary On
Versions: 1 2 3 4 5 6 7 8 9 10 11 12 13 14 15 16 17 18 19 20 21
000
FTUS44 KSHV 291307 AAC
TAFTXK
TAF AMD
KTXK 291307Z 2913/3012 17010KT P6SM VCTS OVC025CB
      TEMPO 2913/2914 5SM TSRA OVC010CB
     FM291400 15008KT 4SM -TSRA BR OVC035CB
     FM300200 13008KT 4SM -TSRA BR OVC020CB
     FM300900 19010KT 4SM -TSRA BR OVC015CB
     FM301100 18011KT 4SM -TSRA BR OVC007CB=

USA.gov is the U.S. government's official web portal to all federal, state and local government web resources and services.